San Rafael, CA

8:21 AM PDT on August 20, 2014 (GMT -0700)
Lincoln Hill | Change Station
CLOSE
Current Station
Personal Weather Station
Location: San Rafael, CA
Elevation: 210 ft
Nearby Weather Stations

Elev 210 ft 37.98 °N, 122.52 °W | Updated 2 seconds ago

Overcast
Overcast
63.3 °F
Feels Like 63.3 °F
N
0.0
Wind Variable Wind from North
Gusts 0.0 mph

Today
High -- | Low -- °F
--% Chance of Precip.
Yesterday
High -- | Low -- °F
Precip. -- in
6:29 AM 7:56 PM
Waning Crescent, 21% visible
Pressure 29.93 in
Visibility 4.0 miles
Clouds Mostly Cloudy 1000 ft
Overcast 1400 ft
Dew Point 54 °F
Humidity 73%
Rainfall 0.00 in
Snow Depth Not available.
UV 0 out of 12
Pollen 4.90 out of 12
Ozone Good
PM2.5 Good
Flu Activity Not available.
METAR KO69 201515Z AUTO 29003KT 4SM BKN010 OVC014 15/14 A2993 RMK AO1

More Conditions Fewer Conditions

Pressure 29.93 in
Visibility 4.0 miles
Clouds Mostly Cloudy 1000 ft
Overcast 1400 ft
Dew Point 54 °F
Humidity 73%
Rainfall 0.00 in
Snow Depth Not available.
UV 0 out of 12
Pollen 4.90 out of 12
Ozone Good
PM2.5 Good
Flu Activity Not available.
METAR KO69 201515Z AUTO 29003KT 4SM BKN010 OVC014 15/14 A2993 RMK AO1

More Conditions Fewer Conditions

10-Day Weather Forecast

Almanac

Astronomy

Aug. 20, 2014 Rise Set
Actual Time 6:29 AM PDT 7:56 PM PDT
Civil Twilight 6:01 AM PDT 8:24 PM PDT
Nautical Twilight 5:28 AM PDT 8:57 PM PDT
Astronomical Twilight 4:53 AM PDT 9:31 PM PDT
Moon 2:15 AM PDT 4:43 PM PDT
Length of Visible Light 14h 22m
Length of Day
13h 26m
Tomorrow will be 2m 13s shorter.
Waning Crescent, 21% of the Moon is Illuminated
Today
Waning Crescent
Aug 25
New
Sep 2
First Quarter
Sep 8
Full
Sep 15
Last Quarter

Today's Extremes

State Highs State Lows

Community

WunderPhotos

Upload Photos

1,745,665 photos uploaded!

Nearby

Air Quality

  Air Quality AQ Index Pollutant
Yesterday Good
PM2.5
Yesterday Good
OZONE
Current Good
PM2.5
Current Good
OZONE
Wednesday Good
PM2.5
Thursday Good
PM2.5
Friday Good
PM2.5
Saturday Moderate
PM2.5
Sunday Moderate
PM2.5

Snow Depth

Station Depth Elevation
Echo Peak 1 in 7800 ft
Forestdale Creek 0 in 8029 ft
Blue Lakes 0 in 8000 ft
Fallen Leaf 0 in 6300 ft
CSS Lab 2 in 6900 ft

Earthquake Activity

City Distance Mag. Time & Date
King City, California 146 miles 2.7 10:26 PM PDT
2014-08-15
King City, California 146 miles 2.9 8:01 PM PDT
2014-08-14
The Geysers, California 57 miles 2.6 8:55 PM PDT
2014-08-13
Upper Lake, California 96 miles 2.9 3:32 PM PDT
2014-08-13
Minimum magnitude displayed is 2.5.

Coastal Water Temperatures

Place Temperature
San Francisco, CA 64.9 °F
Richmond, CA 66.9 °F
Port Chicago, CA 69.1 °F

Nearby Weather Stations